Time;durP1;ratioP1;P1;durP2;ratioP2;P2;SDS_P1;SDS_P2;PMS_P1;PMS_P2;Temp;Humidity;BMP_temperature;BMP_pressure;BME280_temperature;BME280_humidity;BME280_pressure;Samples;Min_cycle;Max_cycle;Signal;HPM_P1;HPM_P2
2022/04/03 00:00:37;;;;;;;6.10;5.10;;;;;;;1.22;100.00;96000.47;5066840;28;20321;-85
2022/04/03 00:03:05;;;;;;;6.17;5.33;;;;;;;1.21;100.00;95995.34;5027848;28;20320;-85
2022/04/03 00:05:38;;;;;;;6.07;5.20;;;;;;;1.21;100.00;95990.84;5041214;28;20583;-86
2022/04/03 00:08:06;;;;;;;7.50;5.70;;;;;;;1.22;100.00;95987.19;5028020;28;20301;-85
2022/04/03 00:10:34;;;;;;;7.90;6.13;;;;;;;1.21;100.00;95990.84;5033943;28;20203;-86
2022/04/03 00:13:02;;;;;;;6.57;5.67;;;;;;;1.20;100.00;95989.19;5025429;28;20206;-85
2022/04/03 00:15:30;;;;;;;6.47;5.43;;;;;;;1.23;100.00;95985.34;5039244;28;20302;-85
2022/04/03 00:17:57;;;;;;;6.97;5.80;;;;;;;1.17;100.00;95978.09;5030119;28;20208;-85
2022/04/03 00:20:24;;;;;;;8.40;6.27;;;;;;;1.17;100.00;95984.25;5018734;28;20231;-85
2022/04/03 00:22:52;;;;;;;6.93;5.77;;;;;;;1.16;100.00;95989.75;5043748;28;20206;-85
2022/04/03 00:25:20;;;;;;;7.20;5.83;;;;;;;1.20;100.00;95983.03;5058304;28;20302;-85
2022/04/03 00:27:47;;;;;;;7.13;5.80;;;;;;;1.19;100.00;95984.06;5040181;28;20394;-85
2022/04/03 00:30:16;;;;;;;7.00;5.60;;;;;;;1.17;100.00;95981.59;5027341;28;20210;-86
2022/04/03 00:32:43;;;;;;;6.80;5.90;;;;;;;1.19;100.00;95987.56;5047243;28;20247;-85
2022/04/03 00:35:10;;;;;;;7.33;6.30;;;;;;;1.24;100.00;95987.84;5025257;28;20300;-85
2022/04/03 00:37:37;;;;;;;6.80;6.10;;;;;;;1.15;100.00;95988.91;5024670;28;20214;-85
2022/04/03 00:40:07;;;;;;;9.03;6.50;;;;;;;1.18;100.00;95991.22;5022700;28;20273;-85
2022/04/03 00:42:35;;;;;;;7.13;5.90;;;;;;;1.15;100.00;95988.91;5024529;28;20257;-85
2022/04/03 00:45:03;;;;;;;6.97;6.27;;;;;;;1.12;100.00;95997.25;5048249;28;20208;-85
2022/04/03 00:47:30;;;;;;;8.23;6.30;;;;;;;1.05;100.00;95991.81;5044170;28;20285;-84
2022/04/03 00:49:58;;;;;;;7.37;6.40;;;;;;;1.16;100.00;95997.72;5035120;28;20211;-85
2022/04/03 00:52:25;;;;;;;8.73;6.47;;;;;;;1.16;100.00;95997.72;5028144;28;20207;-86
2022/04/03 00:54:52;;;;;;;7.33;5.77;;;;;;;1.11;100.00;95998.25;5038551;28;20292;-85
2022/04/03 00:57:23;;;;;;;8.57;6.87;;;;;;;1.06;100.00;95997.97;5022958;28;20222;-85
2022/04/03 00:59:51;;;;;;;8.30;6.50;;;;;;;1.09;100.00;96010.91;5046508;28;20202;-85
2022/04/03 01:02:18;;;;;;;8.70;6.83;;;;;;;1.12;100.00;96002.56;5047553;28;20237;-84
2022/04/03 01:04:46;;;;;;;9.03;6.53;;;;;;;1.14;100.00;95997.91;5054711;28;20260;-86
2022/04/03 01:07:14;;;;;;;7.50;5.97;;;;;;;1.17;100.00;96002.88;5033550;28;20249;-85
2022/04/03 01:09:41;;;;;;;7.40;6.27;;;;;;;1.18;100.00;95995.72;5058789;28;20214;-84
2022/04/03 01:12:10;;;;;;;8.03;6.83;;;;;;;1.24;100.00;96001.13;5034922;28;20206;-85
2022/04/03 01:14:40;;;;;;;9.13;7.60;;;;;;;1.19;100.00;96003.50;5042603;28;20327;-86
2022/04/03 01:17:10;;;;;;;9.10;7.13;;;;;;;1.19;100.00;95998.19;5027282;28;20230;-85
2022/04/03 01:19:38;;;;;;;9.20;7.33;;;;;;;1.18;100.00;96003.69;5058285;28;20207;-85
2022/04/03 01:22:06;;;;;;;8.97;7.30;;;;;;;1.12;100.00;96003.38;5038224;28;20293;-85
2022/04/03 01:24:33;;;;;;;9.13;7.20;;;;;;;1.08;100.00;96002.09;5036778;28;20223;-85
2022/04/03 01:27:02;;;;;;;8.43;7.37;;;;;;;1.05;100.00;96001.63;5034195;28;20214;-85
2022/04/03 01:29:29;;;;;;;10.20;7.37;;;;;;;1.05;100.00;96006.94;5041913;28;20206;-85
2022/04/03 01:31:56;;;;;;;8.33;6.93;;;;;;;0.94;100.00;96002.06;5029468;28;20213;-85
2022/04/03 01:34:23;;;;;;;7.93;6.90;;;;;;;0.98;100.00;96000.69;5041572;28;20210;-85
2022/04/03 01:36:50;;;;;;;8.40;7.13;;;;;;;0.99;100.00;96000.53;5036945;28;20229;-85
2022/04/03 01:39:18;;;;;;;8.77;7.70;;;;;;;1.06;100.00;96009.44;5060960;28;20204;-86
2022/04/03 01:41:45;;;;;;;9.33;7.40;;;;;;;1.07;100.00;96013.75;5037734;28;20249;-85
2022/04/03 01:44:14;;;;;;;9.40;7.83;;;;;;;1.07;100.00;96023.56;5061998;28;20251;-85
2022/04/03 01:46:41;;;;;;;9.10;7.27;;;;;;;1.04;100.00;96014.09;5025962;28;20301;-85
2022/04/03 01:49:11;;;;;;;8.80;7.13;;;;;;;1.08;100.00;96022.56;5063454;28;20202;-85
2022/04/03 01:51:38;;;;;;;10.47;7.37;;;;;;;1.04;100.00;96018.59;5027346;28;20203;-84
2022/04/03 01:54:06;;;;;;;9.10;7.37;;;;;;;1.08;100.00;96020.72;5031212;28;20293;-85
2022/04/03 01:56:34;;;;;;;9.97;7.67;;;;;;;1.04;100.00;96023.91;5062252;28;20520;-84
2022/04/03 01:59:02;;;;;;;9.00;7.57;;;;;;;1.04;100.00;96026.56;5055895;28;20297;-85
2022/04/03 02:01:32;;;;;;;10.53;7.60;;;;;;;1.00;100.00;96022.63;5024549;28;20246;-85
2022/04/03 02:04:00;;;;;;;9.33;7.27;;;;;;;0.99;100.00;96021.78;5060728;28;20205;-85
2022/04/03 02:06:27;;;;;;;10.30;7.30;;;;;;;1.01;100.00;96021.63;5030155;28;20195;-85
2022/04/03 02:08:54;;;;;;;9.23;7.33;;;;;;;0.96;100.00;96019.47;5068800;28;20263;-85
2022/04/03 02:11:21;;;;;;;9.87;7.57;;;;;;;0.94;100.00;96025.97;5045579;28;20204;-85
2022/04/03 02:13:50;;;;;;;9.27;7.20;;;;;;;0.93;100.00;96016.38;5023072;28;20206;-85
2022/04/03 02:16:18;;;;;;;10.33;7.60;;;;;;;0.93;100.00;96024.34;5033343;28;20217;-85
2022/04/03 02:18:46;;;;;;;10.13;7.77;;;;;;;0.88;100.00;96021.38;5030663;28;20268;-85
2022/04/03 02:21:13;;;;;;;9.87;7.83;;;;;;;0.92;100.00;96033.31;5033231;28;20226;-85
2022/04/03 02:23:40;;;;;;;9.70;7.30;;;;;;;1.01;100.00;96033.09;5044820;28;20226;-85
2022/04/03 02:26:07;;;;;;;9.40;7.43;;;;;;;0.95;100.00;96027.63;5037007;28;20206;-86
2022/04/03 02:28:35;;;;;;;12.80;8.67;;;;;;;0.97;100.00;96031.78;5061022;28;20213;-85
2022/04/03 02:31:02;;;;;;;10.00;7.97;;;;;;;0.91;100.00;96024.53;5037885;28;20273;-85
2022/04/03 02:33:29;;;;;;;9.30;7.70;;;;;;;1.01;100.00;96037.56;5055736;28;20298;-85
2022/04/03 02:35:57;;;;;;;8.87;7.40;;;;;;;0.90;100.00;96030.00;5039421;28;20214;-84
2022/04/03 02:38:24;;;;;;;10.73;7.27;;;;;;;0.93;100.00;96027.00;5030766;28;20252;-84
2022/04/03 02:40:52;;;;;;;10.33;7.90;;;;;;;0.87;100.00;96030.34;5032638;28;20213;-85
2022/04/03 02:43:19;;;;;;;10.00;7.97;;;;;;;0.96;100.00;96042.56;5043732;28;20206;-85
2022/04/03 02:45:46;;;;;;;9.87;8.10;;;;;;;0.95;100.00;96030.28;5059364;28;20299;-84
2022/04/03 02:48:13;;;;;;;9.93;8.00;;;;;;;0.99;100.00;96035.09;5022567;28;20253;-85
2022/04/03 02:50:40;;;;;;;9.83;7.80;;;;;;;0.91;100.00;96036.97;5039185;28;20210;-87
2022/04/03 02:53:09;;;;;;;9.30;7.67;;;;;;;0.90;100.00;96033.50;5017763;28;20261;-85
2022/04/03 02:55:36;;;;;;;12.63;8.20;;;;;;;0.89;100.00;96042.47;5028048;28;20205;-85
2022/04/03 02:58:04;;;;;;;11.03;8.27;;;;;;;0.87;100.00;96036.50;5030003;28;20211;-85
2022/04/03 03:00:33;;;;;;;10.87;8.47;;;;;;;0.89;100.00;96049.63;5029805;28;20353;-85
2022/04/03 03:03:02;;;;;;;16.07;8.20;;;;;;;0.93;100.00;96045.63;5058206;28;20289;-84
2022/04/03 03:05:29;;;;;;;11.47;8.10;;;;;;;0.93;100.00;96045.63;5039582;28;20294;-85
2022/04/03 03:07:56;;;;;;;10.90;8.23;;;;;;;0.90;100.00;96035.31;5057113;28;20207;-85
2022/04/03 03:10:25;;;;;;;10.73;8.03;;;;;;;0.88;100.00;96037.34;5067077;28;20215;-84
2022/04/03 03:12:52;;;;;;;13.40;8.57;;;;;;;0.87;100.00;96035.66;5044821;28;20217;-86
2022/04/03 03:15:19;;;;;;;10.40;8.23;;;;;;;0.91;100.00;96042.31;5026800;28;20218;-85
2022/04/03 03:17:47;;;;;;;8.77;7.63;;;;;;;0.87;100.00;96041.81;5053702;28;20209;-84
2022/04/03 03:20:14;;;;;;;10.90;8.07;;;;;;;0.83;100.00;96043.19;5037747;28;20263;-85
2022/04/03 03:22:41;;;;;;;9.70;7.60;;;;;;;0.85;100.00;96043.03;5031166;28;20232;-85
2022/04/03 03:25:09;;;;;;;10.53;8.07;;;;;;;0.83;100.00;96039.69;5049186;28;20292;-85
2022/04/03 03:27:39;;;;;;;9.77;7.80;;;;;;;0.89;100.00;96046.97;5025977;28;20209;-85
2022/04/03 03:30:08;;;;;;;11.10;8.40;;;;;;;0.93;100.00;96048.28;5060276;28;20313;-85
2022/04/03 03:32:35;;;;;;;9.87;8.10;;;;;;;0.90;100.00;96045.97;5040055;28;20200;-84
2022/04/03 03:35:02;;;;;;;9.67;7.23;;;;;;;0.82;100.00;96041.53;5030068;28;20221;-85
2022/04/03 03:37:29;;;;;;;10.73;8.00;;;;;;;0.84;100.00;96044.03;5039279;28;20206;-84
2022/04/03 03:39:57;;;;;;;10.37;7.87;;;;;;;0.78;100.00;96037.56;5020982;28;20199;-84
2022/04/03 03:42:24;;;;;;;11.37;8.17;;;;;;;0.86;100.00;96048.13;5023874;28;20284;-85
2022/04/03 03:44:52;;;;;;;9.63;7.87;;;;;;;0.81;100.00;96055.81;5044732;28;20206;-85
2022/04/03 03:47:21;;;;;;;10.33;7.83;;;;;;;0.84;100.00;96047.50;5044952;28;20293;-85
2022/04/03 03:49:48;;;;;;;8.80;7.27;;;;;;;0.89;100.00;96055.75;5024864;28;20205;-85
2022/04/03 03:52:15;;;;;;;9.43;7.97;;;;;;;0.86;100.00;96049.97;5018479;28;20276;-85
2022/04/03 03:54:43;;;;;;;11.03;8.03;;;;;;;0.85;100.00;96048.34;5033158;28;20277;-85
2022/04/03 03:57:10;;;;;;;9.90;8.00;;;;;;;0.78;100.00;96058.81;5028922;28;20210;-84
2022/04/03 03:59:37;;;;;;;11.13;8.23;;;;;;;0.74;100.00;96047.75;5034655;28;20203;-83
2022/04/03 04:02:06;;;;;;;10.00;7.70;;;;;;;0.73;100.00;96056.72;5040551;28;20242;-85
2022/04/03 04:04:34;;;;;;;10.17;7.87;;;;;;;0.75;100.00;96052.06;5044200;28;20207;-84
2022/04/03 04:07:01;;;;;;;10.73;7.07;;;;;;;0.80;100.00;96062.13;5043386;28;20201;-84
2022/04/03 04:09:28;;;;;;;8.03;7.20;;;;;;;0.82;100.00;96061.97;5068819;28;20678;-85
2022/04/03 04:11:55;;;;;;;9.80;7.87;;;;;;;0.75;100.00;96054.72;5037397;28;20210;-85
2022/04/03 04:14:22;;;;;;;9.83;7.60;;;;;;;0.82;100.00;96065.44;5025964;28;20218;-84
2022/04/03 04:16:49;;;;;;;10.00;7.63;;;;;;;0.88;100.00;96064.75;5029598;28;20293;-84
2022/04/03 04:19:18;;;;;;;12.17;7.60;;;;;;;0.84;100.00;96060.78;5040878;28;20225;-84
2022/04/03 04:21:45;;;;;;;11.63;7.20;;;;;;;0.91;100.00;96071.53;5027772;28;20225;-85
2022/04/03 04:24:12;;;;;;;9.33;6.77;;;;;;;0.83;100.00;96061.78;5061566;28;20232;-85
2022/04/03 04:26:39;;;;;;;9.10;7.33;;;;;;;0.83;100.00;96060.97;5038129;28;20238;-85
2022/04/03 04:29:07;;;;;;;9.47;7.53;;;;;;;0.85;100.00;96069.59;5024850;28;20198;-84
2022/04/03 04:31:34;;;;;;;10.20;7.23;;;;;;;0.82;100.00;96073.44;5057515;28;20244;-84
2022/04/03 04:34:03;;;;;;;10.10;7.30;;;;;;;0.83;100.00;96083.06;5025111;28;20205;-84
2022/04/03 04:36:31;;;;;;;9.83;7.30;;;;;;;0.87;100.00;96078.19;5044756;28;20222;-85
2022/04/03 04:38:59;;;;;;;9.83;7.40;;;;;;;0.86;100.00;96072.06;5028436;28;20288;-85
2022/04/03 04:41:26;;;;;;;8.67;7.00;;;;;;;0.86;100.00;96088.00;5062301;28;20202;-84
2022/04/03 04:43:54;;;;;;;9.23;7.37;;;;;;;0.81;100.00;96086.88;5060526;28;20230;-84
2022/04/03 04:46:21;;;;;;;8.27;6.90;;;;;;;0.86;100.00;96087.16;5026141;28;20209;-84
2022/04/03 04:48:48;;;;;;;10.87;7.20;;;;;;;0.92;100.00;96086.50;5027342;28;20206;-84
2022/04/03 04:51:16;;;;;;;10.17;7.77;;;;;;;0.84;100.00;96091.88;5038122;28;20194;-85
2022/04/03 04:53:44;;;;;;;10.50;8.13;;;;;;;0.81;100.00;96092.19;5033492;28;20256;-85
2022/04/03 04:56:12;;;;;;;11.00;8.30;;;;;;;0.82;100.00;96091.19;5056555;28;20302;-84
2022/04/03 04:58:39;;;;;;;10.60;7.80;;;;;;;0.91;100.00;96098.13;5032582;28;20214;-84
2022/04/03 05:01:06;;;;;;;11.20;8.57;;;;;;;0.84;100.00;96107.81;5057331;28;20219;-83
2022/04/03 05:03:34;;;;;;;10.97;7.97;;;;;;;0.81;100.00;96105.50;5026610;28;20290;-84
2022/04/03 05:06:01;;;;;;;10.17;7.73;;;;;;;0.85;100.00;96106.81;5016072;28;20199;-84
2022/04/03 05:08:29;;;;;;;9.77;8.07;;;;;;;0.80;100.00;96099.34;5006583;28;20218;-85
2022/04/03 05:10:58;;;;;;;9.63;7.30;;;;;;;0.85;100.00;96106.81;5004879;28;20247;-85
2022/04/03 05:13:27;;;;;;;10.93;8.17;;;;;;;0.88;100.00;96112.59;5019225;28;20212;-84
2022/04/03 05:15:55;;;;;;;10.40;7.90;;;;;;;0.90;100.00;96115.91;5027380;28;20261;-84
2022/04/03 05:18:22;;;;;;;13.67;8.07;;;;;;;0.90;100.00;96112.41;5008942;28;20222;-84
2022/04/03 05:20:49;;;;;;;10.50;8.17;;;;;;;0.89;100.00;96116.06;5036841;28;20258;-84
2022/04/03 05:23:16;;;;;;;9.97;7.77;;;;;;;0.89;100.00;96124.03;5018837;28;20232;-85
2022/04/03 05:25:43;;;;;;;10.10;8.10;;;;;;;0.91;100.00;96122.03;5031984;28;20289;-84
2022/04/03 05:28:12;;;;;;;8.73;6.90;;;;;;;0.87;100.00;96120.72;5029323;28;20258;-84
2022/04/03 05:30:40;;;;;;;10.17;7.23;;;;;;;0.89;100.00;96126.69;5023772;28;20204;-85
2022/04/03 05:33:07;;;;;;;13.03;9.17;;;;;;;0.90;100.00;96123.88;5031912;28;20205;-84
2022/04/03 05:35:34;;;;;;;10.93;7.63;;;;;;;0.86;100.00;96121.72;5026333;28;20253;-84
2022/04/03 05:38:01;;;;;;;10.17;7.67;;;;;;;0.89;100.00;96122.22;5037890;28;20212;-84
2022/04/03 05:40:28;;;;;;;8.60;7.10;;;;;;;0.96;100.00;96130.31;5028613;28;20205;-85
2022/04/03 05:42:55;;;;;;;9.80;7.83;;;;;;;0.94;100.00;96132.31;5024065;28;20272;-84
2022/04/03 05:45:24;;;;;;;10.43;8.20;;;;;;;0.90;100.00;96128.34;5039479;28;20216;-84
2022/04/03 05:47:52;;;;;;;9.93;7.57;;;;;;;0.90;100.00;96131.03;5026613;28;20207;-84
2022/04/03 05:50:19;;;;;;;11.50;8.37;;;;;;;0.98;100.00;96136.28;5027130;28;20204;-84
2022/04/03 05:52:48;;;;;;;10.40;8.50;;;;;;;1.01;100.00;96127.97;5026885;28;20212;-84
2022/04/03 05:55:16;;;;;;;12.00;8.93;;;;;;;0.94;100.00;96129.66;5048419;28;20201;-84
2022/04/03 05:57:45;;;;;;;11.10;8.23;;;;;;;0.98;100.00;96144.25;5018880;28;20214;-84
2022/04/03 06:00:13;;;;;;;11.97;8.07;;;;;;;0.98;100.00;96144.25;5015679;28;20209;-84
2022/04/03 06:02:49;;;;;;;11.40;8.40;;;;;;;0.95;100.00;96134.78;5015382;28;20230;-84
2022/04/03 06:05:18;;;;;;;10.83;8.83;;;;;;;0.99;100.00;96146.75;5012318;28;20212;-84
2022/04/03 06:07:45;;;;;;;11.10;8.83;;;;;;;0.96;100.00;96141.78;5021909;28;20226;-84
2022/04/03 06:10:13;;;;;;;9.93;8.27;;;;;;;0.95;100.00;96150.75;5035511;28;20288;-85
2022/04/03 06:12:52;;;;;;;11.53;8.50;;;;;;;0.90;100.00;96141.66;5010470;28;20291;-84
2022/04/03 06:15:19;;;;;;;9.87;7.90;;;;;;;0.96;100.00;96143.59;5042366;28;20208;-84
2022/04/03 06:17:50;;;;;;;9.53;7.93;;;;;;;0.95;100.00;96144.59;5045690;28;20272;-83
2022/04/03 06:20:17;;;;;;;12.00;8.73;;;;;;;0.99;100.00;96156.56;5029337;28;20207;-84
2022/04/03 06:22:44;;;;;;;11.03;8.17;;;;;;;0.83;100.00;96148.69;5037511;28;20244;-84
2022/04/03 06:25:12;;;;;;;10.73;8.37;;;;;;;0.83;100.00;96157.47;5033463;28;20257;-84
2022/04/03 06:27:39;;;;;;;11.20;8.37;;;;;;;0.85;100.00;96159.97;5061364;28;20292;-85
2022/04/03 06:30:08;;;;;;;9.83;8.07;;;;;;;0.91;100.00;96161.91;5042416;28;20265;-84
2022/04/03 06:32:35;;;;;;;12.17;8.40;;;;;;;0.93;100.00;96162.56;5017327;28;20212;-85
2022/04/03 06:35:03;;;;;;;11.23;8.70;;;;;;;0.91;100.00;96169.91;5052415;28;20243;-85
2022/04/03 06:37:31;;;;;;;10.60;8.03;;;;;;;0.99;100.00;96161.88;5030264;28;20278;-85
2022/04/03 06:39:58;;;;;;;10.77;7.00;;;;;;;1.07;100.00;96167.13;5056471;28;20215;-85
2022/04/03 06:42:25;;;;;;;10.37;8.13;;;;;;;1.27;100.00;96167.50;5024431;28;20297;-85
2022/04/03 06:44:53;;;;;;;9.47;7.87;;;;;;;1.26;100.00;96176.50;5043287;28;20202;-85
2022/04/03 06:47:20;;;;;;;10.33;7.67;;;;;;;1.24;100.00;96174.00;5024580;28;20209;-85
2022/04/03 06:49:47;;;;;;;11.70;8.33;;;;;;;1.27;100.00;96171.00;5027924;28;20238;-84
2022/04/03 06:52:16;;;;;;;9.27;7.40;;;;;;;1.30;100.00;96175.94;5044217;28;20208;-84
2022/04/03 06:54:44;;;;;;;9.30;7.13;;;;;;;1.38;100.00;96178.53;5017820;28;20221;-84
2022/04/03 06:57:13;;;;;;;10.07;7.83;;;;;;;1.43;100.00;96173.53;5040619;28;20237;-84
2022/04/03 06:59:41;;;;;;;9.03;7.37;;;;;;;1.51;100.00;96183.28;5062625;28;20210;-84
2022/04/03 07:02:08;;;;;;;9.83;7.63;;;;;;;1.54;100.00;96182.91;5037756;28;20241;-84
2022/04/03 07:04:35;;;;;;;8.80;7.43;;;;;;;1.59;99.55;96182.41;5048745;28;20227;-85
2022/04/03 07:07:03;;;;;;;10.60;7.47;;;;;;;1.58;98.79;96180.72;5017880;28;20321;-86
2022/04/03 07:09:32;;;;;;;8.93;7.13;;;;;;;1.59;98.85;96179.72;5057324;28;20788;-86
2022/04/03 07:11:59;;;;;;;10.03;7.60;;;;;;;1.56;98.41;96186.22;5027330;28;20202;-83
2022/04/03 07:14:26;;;;;;;10.37;7.67;;;;;;;1.67;98.51;96177.84;5024381;28;20217;-84
2022/04/03 07:16:53;;;;;;;10.77;6.63;;;;;;;1.83;97.01;96177.69;5061918;28;20221;-84
2022/04/03 07:19:20;;;;;;;8.73;7.10;;;;;;;1.88;96.56;96182.47;5026555;28;20323;-83
2022/04/03 07:21:47;;;;;;;10.67;7.90;;;;;;;2.02;95.82;96191.50;5051406;28;20199;-83
2022/04/03 07:24:14;;;;;;;9.97;7.43;;;;;;;2.02;95.70;96186.19;5049167;28;20225;-84
2022/04/03 07:26:42;;;;;;;10.50;7.63;;;;;;;2.08;96.11;96190.78;5060976;28;20207;-84
2022/04/03 07:29:10;;;;;;;10.87;7.10;;;;;;;2.18;94.54;96197.50;5051984;28;20217;-84
2022/04/03 07:31:37;;;;;;;8.83;7.10;;;;;;;2.29;92.97;96193.56;5026950;28;20209;-87
2022/04/03 07:34:04;;;;;;;9.47;7.20;;;;;;;2.31;92.15;96198.69;5041305;28;20219;-86
2022/04/03 07:36:32;;;;;;;11.23;7.67;;;;;;;2.27;92.52;96195.56;5036028;28;20252;-84
2022/04/03 07:38:59;;;;;;;10.63;7.87;;;;;;;2.35;91.56;96207.97;5052392;28;20209;-84
2022/04/03 07:41:26;;;;;;;8.60;6.90;;;;;;;2.41;92.22;96202.75;5028291;28;20210;-85
2022/04/03 07:43:54;;;;;;;10.53;7.57;;;;;;;2.45;92.13;96197.88;5045236;28;20281;-85
2022/04/03 07:46:21;;;;;;;10.27;7.50;;;;;;;2.44;91.96;96198.88;5035310;28;20207;-84
2022/04/03 07:48:49;;;;;;;9.97;7.03;;;;;;;2.43;91.01;96190.06;5044712;28;20203;-85
2022/04/03 07:51:16;;;;;;;8.40;7.00;;;;;;;2.51;89.12;96207.81;5058377;28;20216;-85
2022/04/03 07:53:43;;;;;;;8.83;6.90;;;;;;;2.54;88.85;96197.63;5041119;28;20245;-84
2022/04/03 07:56:10;;;;;;;8.67;7.10;;;;;;;2.59;87.75;96205.03;5061571;28;20259;-84
2022/04/03 07:58:38;;;;;;;8.07;6.70;;;;;;;2.51;86.67;96203.31;5036390;28;20288;-84
2022/04/03 08:01:06;;;;;;;11.40;7.93;;;;;;;2.61;87.09;96203.03;5035139;28;20295;-84
2022/04/03 08:03:33;;;;;;;8.40;6.97;;;;;;;2.61;87.52;96213.69;5037048;28;20226;-85
2022/04/03 08:06:00;;;;;;;8.90;7.10;;;;;;;2.72;87.84;96213.25;5030140;28;20203;-85
2022/04/03 08:08:29;;;;;;;8.23;7.03;;;;;;;2.81;87.36;96208.59;5055396;28;20344;-85
2022/04/03 08:10:56;;;;;;;8.20;7.00;;;;;;;2.85;86.04;96200.06;5055163;28;20385;-85
2022/04/03 08:13:23;;;;;;;11.63;7.30;;;;;;;2.93;83.74;96210.63;5031533;28;20209;-84
2022/04/03 08:15:50;;;;;;;8.20;6.40;;;;;;;2.99;85.92;96204.53;5054380;28;20211;-85
2022/04/03 08:18:19;;;;;;;7.87;6.83;;;;;;;3.05;84.55;96202.97;5024491;28;20206;-85
2022/04/03 08:20:46;;;;;;;11.73;7.37;;;;;;;3.17;83.37;96209.47;5036511;28;20293;-85
2022/04/03 08:23:13;;;;;;;8.33;7.37;;;;;;;3.20;83.60;96218.94;5030877;28;20235;-85
2022/04/03 08:25:40;;;;;;;7.73;6.80;;;;;;;3.26;82.53;96218.19;5028053;28;20260;-85
2022/04/03 08:28:08;;;;;;;8.50;7.10;;;;;;;3.19;82.46;96217.28;5028125;28;20217;-85
2022/04/03 08:30:38;;;;;;;8.80;6.63;;;;;;;3.25;84.38;96216.53;5041763;28;20202;-84
2022/04/03 08:33:08;;;;;;;8.93;6.73;;;;;;;3.33;82.65;96219.91;5026356;28;20218;-85
2022/04/03 08:35:40;;;;;;;8.37;6.50;;;;;;;3.37;82.34;96213.19;5017941;28;20270;-85
2022/04/03 08:38:08;;;;;;;7.87;6.53;;;;;;;3.61;81.48;96221.84;5029545;28;20328;-86
2022/04/03 08:40:36;;;;;;;7.50;6.37;;;;;;;3.64;79.17;96219.66;5029357;28;20202;-86
2022/04/03 08:43:05;;;;;;;8.53;6.77;;;;;;;3.77;79.33;96224.28;5023203;28;20214;-85
2022/04/03 08:45:32;;;;;;;9.23;7.47;;;;;;;3.77;79.30;96222.44;5032248;28;20276;-85
2022/04/03 08:48:01;;;;;;;8.03;6.57;;;;;;;4.17;78.95;96218.25;5028294;28;20252;-85
2022/04/03 08:50:29;;;;;;;8.30;6.53;;;;;;;4.51;77.13;96220.16;5049434;28;20205;-85
2022/04/03 08:52:59;;;;;;;8.27;6.27;;;;;;;4.52;74.98;96224.47;5064735;28;20437;-86
2022/04/03 08:55:27;;;;;;;8.03;6.73;;;;;;;4.66;76.88;96221.91;5017766;28;20203;-85
2022/04/03 08:57:54;;;;;;;8.93;7.23;;;;;;;4.79;75.34;96217.44;5025773;28;20218;-85
2022/04/03 09:00:22;;;;;;;9.33;6.77;;;;;;;4.70;74.67;96220.47;5040479;28;20202;-85
2022/04/03 09:02:51;;;;;;;10.67;7.83;;;;;;;4.60;75.54;96226.16;5030248;28;20231;-85
2022/04/03 09:05:18;;;;;;;9.70;7.00;;;;;;;4.43;75.28;96230.16;5025739;28;20312;-85
2022/04/03 09:08:01;;;;;;;9.20;7.63;;;;;;;4.23;75.66;96222.03;5054192;28;20269;-85
2022/04/03 09:10:28;;;;;;;7.97;6.63;;;;;;;4.34;75.82;96221.47;5031011;28;20214;-86
2022/04/03 09:12:55;;;;;;;9.17;7.10;;;;;;;4.18;74.85;96224.44;5047910;28;20210;-85
2022/04/03 09:15:23;;;;;;;8.90;7.20;;;;;;;4.04;74.43;96212.00;5040924;28;20237;-85
2022/04/03 09:17:52;;;;;;;8.17;7.10;;;;;;;4.15;76.42;96219.50;5047039;28;20310;-85
2022/04/03 09:20:22;;;;;;;8.83;6.67;;;;;;;4.31;74.20;96223.72;5048651;28;20209;-85
2022/04/03 09:22:51;;;;;;;10.50;7.30;;;;;;;4.34;75.12;96218.00;5043683;28;20202;-85
2022/04/03 09:25:25;;;;;;;8.63;6.70;;;;;;;4.38;75.84;96217.41;5021836;28;20219;-85
2022/04/03 09:27:53;;;;;;;8.93;6.87;;;;;;;4.32;76.22;96214.69;5047493;28;20206;-85
2022/04/03 09:30:23;;;;;;;7.77;6.97;;;;;;;4.28;75.19;96211.56;5042105;28;20207;-85
2022/04/03 09:32:51;;;;;;;7.67;6.67;;;;;;;4.33;74.54;96222.50;5044924;28;20206;-85
2022/04/03 09:35:21;;;;;;;7.83;6.90;;;;;;;4.23;74.43;96216.66;5033726;28;20206;-85
2022/04/03 09:38:08;;;;;;;12.63;7.00;;;;;;;4.24;76.77;96222.84;5064089;28;20244;-85
2022/04/03 09:40:38;;;;;;;7.80;6.47;;;;;;;4.23;73.90;96210.50;5049038;28;20245;-85
2022/04/03 09:43:18;;;;;;;8.67;7.43;;;;;;;4.21;76.64;96213.38;5049352;28;20300;-85
2022/04/03 09:45:50;;;;;;;9.87;7.17;;;;;;;4.22;75.00;96212.34;5034959;28;20198;-85
2022/04/03 09:48:26;;;;;;;8.97;7.10;;;;;;;4.43;74.44;96212.28;5044895;28;20221;-85
2022/04/03 09:50:57;;;;;;;8.53;6.93;;;;;;;4.57;74.11;96208.69;5030466;28;20284;-85
2022/04/03 09:53:25;;;;;;;8.60;6.97;;;;;;;4.59;73.18;96200.47;5028924;28;20284;-85
2022/04/03 09:55:53;;;;;;;8.13;6.67;;;;;;;4.72;73.82;96210.41;5054304;28;20217;-85
2022/04/03 09:58:22;;;;;;;8.73;6.60;;;;;;;5.16;72.15;96208.16;5030539;28;20234;-86
2022/04/03 10:00:49;;;;;;;8.10;6.57;;;;;;;5.23;70.20;96213.53;5047599;28;20213;-85
2022/04/03 10:03:16;;;;;;;7.77;6.90;;;;;;;5.17;70.07;96204.47;5046477;28;20245;-85
2022/04/03 10:05:44;;;;;;;9.40;7.60;;;;;;;5.14;71.55;96212.88;5045440;28;20198;-86
2022/04/03 10:08:12;;;;;;;9.60;7.67;;;;;;;5.02;73.84;96209.13;5049585;28;20297;-85
2022/04/03 10:10:39;;;;;;;9.37;7.53;;;;;;;4.84;73.23;96219.53;5040181;28;20198;-86
2022/04/03 10:13:10;;;;;;;10.07;8.40;;;;;;;4.51;74.35;96206.78;5030514;28;20206;-85
2022/04/03 10:15:38;;;;;;;8.50;7.40;;;;;;;4.61;74.12;96205.59;5044979;28;20220;-85
2022/04/03 10:18:06;;;;;;;9.13;7.47;;;;;;;4.60;72.87;96203.94;5026042;28;20213;-85
2022/04/03 10:20:37;;;;;;;8.63;6.70;;;;;;;4.56;71.74;96212.38;5035992;28;20194;-85
2022/04/03 10:23:10;;;;;;;8.10;6.60;;;;;;;4.53;72.24;96210.09;5033939;28;20194;-85
2022/04/03 10:25:41;;;;;;;7.90;6.80;;;;;;;4.60;72.85;96204.78;5024017;28;20229;-85
2022/04/03 10:28:11;;;;;;;10.47;7.60;;;;;;;4.69;74.08;96216.16;5031582;28;20218;-86
2022/04/03 10:30:40;;;;;;;10.40;7.37;;;;;;;4.72;74.00;96213.09;5029042;28;20202;-84
2022/04/03 10:33:08;;;;;;;9.07;7.77;;;;;;;4.67;73.83;96208.34;5034143;28;20211;-85
2022/04/03 10:35:36;;;;;;;8.63;7.27;;;;;;;4.67;73.24;96218.22;5029174;28;20210;-85
2022/04/03 10:38:06;;;;;;;12.33;8.00;;;;;;;4.62;73.47;96205.41;5066097;28;20289;-85
2022/04/03 10:40:34;;;;;;;10.17;8.17;;;;;;;4.71;73.33;96195.38;5024405;28;21185;-85
2022/04/03 10:43:03;;;;;;;9.07;7.27;;;;;;;4.69;72.30;96206.28;5019281;28;20261;-85
2022/04/03 10:45:33;;;;;;;7.70;6.90;;;;;;;4.69;72.80;96208.13;5024310;28;20238;-85
2022/04/03 10:48:27;;;;;;;8.40;7.43;;;;;;;4.77;72.21;96213.31;5039876;28;20255;-84
2022/04/03 10:50:59;;;;;;;10.07;7.97;;;;;;;4.78;72.43;96212.28;5034893;28;20216;-85
2022/04/03 10:53:30;;;;;;;8.80;7.00;;;;;;;4.72;71.56;96210.41;5059872;28;20218;-85
2022/04/03 10:55:58;;;;;;;8.23;7.23;;;;;;;4.88;71.96;96220.78;5033198;28;20211;-85
2022/04/03 10:58:38;;;;;;;9.47;7.17;;;;;;;4.88;71.52;96218.09;5059206;28;20206;-85
2022/04/03 11:01:06;;;;;;;9.90;7.77;;;;;;;4.75;72.82;96212.69;5063469;28;20603;-85
2022/04/03 11:03:37;;;;;;;9.20;7.53;;;;;;;4.84;72.78;96214.19;5034150;28;20195;-85
2022/04/03 11:06:25;;;;;;;10.57;8.57;;;;;;;4.88;72.99;96216.25;5021874;28;20237;-85
2022/04/03 11:09:06;;;;;;;9.93;8.07;;;;;;;4.95;73.01;96221.63;5030793;28;20229;-85
2022/04/03 11:11:53;;;;;;;10.13;7.60;;;;;;;5.11;73.51;96223.97;5069059;28;20216;-85
2022/04/03 11:14:58;;;;;;;9.23;7.80;;;;;;;5.08;72.63;96220.91;5018005;28;20241;-84
2022/04/03 11:17:59;;;;;;;9.07;7.13;;;;;;;5.26;69.91;96219.31;5030877;28;20204;-86
2022/04/03 11:20:37;;;;;;;11.30;7.43;;;;;;;5.15;69.84;96214.53;4999388;28;20230;-85
2022/04/03 11:23:06;;;;;;;9.83;7.73;;;;;;;5.17;70.29;96220.53;4998197;28;20203;-85
2022/04/03 11:25:35;;;;;;;12.03;8.33;;;;;;;5.60;70.13;96214.91;5023661;28;20218;-86
2022/04/03 11:28:03;;;;;;;9.73;7.90;;;;;;;5.92;69.58;96219.53;5030876;28;20248;-85
2022/04/03 11:30:34;;;;;;;9.30;7.33;;;;;;;6.04;68.24;96217.88;5031428;28;20209;-85
2022/04/03 11:33:05;;;;;;;9.40;7.67;;;;;;;6.09;66.52;96203.88;5032864;28;20249;-85
2022/04/03 11:35:40;;;;;;;8.90;7.37;;;;;;;5.96;67.40;96223.44;5028970;28;20238;-84
2022/04/03 11:38:10;;;;;;;9.87;7.10;;;;;;;5.86;67.26;96223.00;5041152;28;20211;-85
2022/04/03 11:40:39;;;;;;;9.23;7.40;;;;;;;5.60;67.40;96220.25;5032364;28;20237;-85